createdAt,value
2017-09-25T00:01:34.860Z,73.63
2017-09-25T00:04:01.117Z,72.85
2017-09-25T00:06:27.321Z,73.34
2017-09-25T00:08:53.545Z,73.69
2017-09-25T00:11:19.794Z,73.50
2017-09-25T00:13:46.010Z,73.56
2017-09-25T00:16:12.237Z,73.74
2017-09-25T00:18:38.490Z,73.71
2017-09-25T00:21:04.707Z,73.60
2017-09-25T00:23:30.939Z,73.49
2017-09-25T00:25:57.151Z,73.01
2017-09-25T00:28:23.355Z,73.16
2017-09-25T00:30:49.624Z,74.51
2017-09-25T00:33:15.860Z,75.14
2017-09-25T00:35:42.081Z,74.84
2017-09-25T00:38:08.257Z,74.80
2017-09-25T00:40:34.440Z,74.82
2017-09-25T00:43:00.674Z,74.56
2017-09-25T00:45:26.890Z,74.71
2017-09-25T00:47:53.131Z,74.43
2017-09-25T00:50:19.356Z,74.11
2017-09-25T00:52:45.606Z,74.60
2017-09-25T00:55:11.810Z,75.00
2017-09-25T00:57:38.058Z,73.94
2017-09-25T01:00:04.298Z,73.29
2017-09-25T01:02:30.513Z,73.04
2017-09-25T01:04:56.744Z,73.36
2017-09-25T01:07:22.973Z,73.91
2017-09-25T01:09:49.210Z,74.55
2017-09-25T01:12:15.420Z,74.44
2017-09-25T01:14:41.662Z,73.68
2017-09-25T01:17:07.880Z,73.73
2017-09-25T01:19:34.121Z,74.45
2017-09-25T01:22:00.357Z,74.42
2017-09-25T01:24:26.572Z,74.39
2017-09-25T01:26:52.804Z,74.68
2017-09-25T01:29:19.020Z,75.07
2017-09-25T01:31:45.267Z,75.12
2017-09-25T01:34:11.496Z,74.89
2017-09-25T01:36:37.720Z,74.20
2017-09-25T01:39:03.955Z,74.06
2017-09-25T01:41:30.191Z,74.20
2017-09-25T01:43:56.406Z,74.23
2017-09-25T01:46:22.656Z,74.91
2017-09-25T01:48:48.867Z,75.07
2017-09-25T01:51:15.035Z,75.29
2017-09-25T01:53:41.226Z,74.93
2017-09-25T01:56:07.477Z,74.63
2017-09-25T01:58:33.693Z,74.37
2017-09-25T02:00:59.927Z,74.54
2017-09-25T02:03:26.166Z,74.85
2017-09-25T02:05:52.387Z,74.56
2017-09-25T02:08:18.601Z,73.51
2017-09-25T02:10:44.828Z,72.76
2017-09-25T02:13:11.090Z,72.81
2017-09-25T02:15:37.304Z,73.72
2017-09-25T02:18:03.538Z,74.20
2017-09-25T02:20:29.759Z,74.12
2017-09-25T02:22:55.994Z,73.92
2017-09-25T02:25:22.240Z,73.62
2017-09-25T02:27:48.455Z,73.45
2017-09-25T02:30:14.671Z,73.45
2017-09-25T02:32:40.904Z,73.92
2017-09-25T02:35:07.070Z,74.46
2017-09-25T02:37:33.263Z,75.06
2017-09-25T02:39:59.482Z,74.82
2017-09-25T02:42:25.709Z,75.35
2017-09-25T02:44:51.949Z,75.25
2017-09-25T02:47:18.187Z,75.29
2017-09-25T02:49:44.403Z,75.04
2017-09-25T02:52:10.658Z,74.63
2017-09-25T02:54:36.872Z,74.54
2017-09-25T02:57:03.107Z,74.18
2017-09-25T02:59:29.326Z,74.37
2017-09-25T03:01:55.569Z,73.96
2017-09-25T03:04:21.784Z,73.76
2017-09-25T03:06:48.015Z,73.78
2017-09-25T03:09:14.255Z,74.09
2017-09-25T03:11:40.464Z,74.16
2017-09-25T03:14:06.718Z,73.92
2017-09-25T03:16:32.936Z,73.27
2017-09-25T03:18:59.191Z,73.31
2017-09-25T03:21:25.406Z,73.46
2017-09-25T03:23:51.630Z,73.16
2017-09-25T03:26:17.857Z,74.28
2017-09-25T03:28:44.095Z,74.59
2017-09-25T03:31:10.296Z,74.81
2017-09-25T03:33:36.541Z,74.36
2017-09-25T03:36:02.768Z,73.93
2017-09-25T03:38:29.006Z,73.20
2017-09-25T03:40:55.250Z,72.85
2017-09-25T03:43:21.459Z,72.26
2017-09-25T03:45:47.702Z,72.28
2017-09-25T03:48:13.924Z,72.22
2017-09-25T03:50:40.158Z,72.20
2017-09-25T03:53:06.340Z,72.25
2017-09-25T03:55:32.608Z,72.33
2017-09-25T03:57:58.823Z,73.24
2017-09-25T04:00:25.084Z,74.64
2017-09-25T04:02:51.289Z,75.88
2017-09-25T04:05:17.529Z,76.00
2017-09-25T04:07:43.757Z,76.22
2017-09-25T04:10:09.986Z,77.04
2017-09-25T04:12:36.232Z,77.31
2017-09-25T04:15:02.447Z,76.83
2017-09-25T04:17:28.688Z,77.11
2017-09-25T04:19:54.909Z,77.71
2017-09-25T04:22:21.149Z,77.57
2017-09-25T04:24:47.352Z,77.52
2017-09-25T04:27:13.600Z,77.19
2017-09-25T04:29:39.823Z,76.81
2017-09-25T04:32:06.064Z,76.68
2017-09-25T04:34:32.292Z,76.95
2017-09-25T04:36:58.526Z,77.19
2017-09-25T04:39:24.741Z,76.93
2017-09-25T04:41:50.981Z,76.92
2017-09-25T04:44:17.189Z,76.77
2017-09-25T04:46:43.426Z,76.37
2017-09-25T04:49:09.666Z,75.71
2017-09-25T04:51:35.901Z,75.08
2017-09-25T04:54:02.134Z,75.64
2017-09-25T04:56:28.369Z,73.78
2017-09-25T04:58:54.596Z,73.75
2017-09-25T05:01:20.811Z,74.71
2017-09-25T05:03:46.991Z,75.66
2017-09-25T05:06:13.279Z,73.97
2017-09-25T05:08:39.868Z,73.51
2017-09-25T05:11:06.146Z,72.32
2017-09-25T05:13:32.367Z,71.59
2017-09-25T05:15:58.600Z,70.58
2017-09-25T05:18:24.826Z,70.67
2017-09-25T05:20:51.069Z,72.01
2017-09-25T05:23:17.305Z,71.42
2017-09-25T05:25:43.523Z,70.92
2017-09-25T05:28:09.766Z,70.37
2017-09-25T05:30:35.978Z,70.84
2017-09-25T05:33:02.221Z,71.00
2017-09-25T05:35:28.442Z,71.10
2017-09-25T05:37:54.654Z,71.46
2017-09-25T05:40:20.901Z,71.56
2017-09-25T05:42:47.151Z,71.64
2017-09-25T05:45:14.402Z,70.94
2017-09-25T05:47:40.557Z,71.27
2017-09-25T05:50:06.745Z,70.25
2017-09-25T05:52:32.980Z,69.28
2017-09-25T05:54:59.202Z,70.10
2017-09-25T05:57:25.366Z,70.23
2017-09-25T05:59:51.578Z,70.57
2017-09-25T06:02:17.751Z,68.12
2017-09-25T06:04:44.017Z,69.08
2017-09-25T06:07:10.243Z,69.11
2017-09-25T06:09:36.472Z,68.42
2017-09-25T06:12:02.729Z,67.23
2017-09-25T06:14:28.940Z,66.91
2017-09-25T06:16:55.161Z,65.83
2017-09-25T06:19:21.397Z,66.24
2017-09-25T06:21:47.630Z,67.69
2017-09-25T06:24:13.858Z,67.16
2017-09-25T06:26:40.073Z,66.93
2017-09-25T06:29:06.338Z,66.78
2017-09-25T06:31:32.546Z,66.50
2017-09-25T06:33:58.768Z,65.56
2017-09-25T06:36:24.996Z,65.22
2017-09-25T06:38:51.239Z,65.08
2017-09-25T06:41:17.457Z,63.69
2017-09-25T06:43:43.692Z,62.25
2017-09-25T06:52:53.384Z,62.50
2017-09-25T06:55:19.622Z,62.09
2017-09-25T06:57:45.901Z,62.71
2017-09-25T07:00:12.087Z,62.15
2017-09-25T07:02:38.354Z,62.18
2017-09-25T07:05:04.658Z,62.09
2017-09-25T07:07:30.868Z,60.74
2017-09-25T07:09:57.085Z,60.32
2017-09-25T07:12:23.331Z,60.95
2017-09-25T07:14:49.555Z,60.90
2017-09-25T07:17:15.775Z,61.15
2017-09-25T07:19:41.922Z,62.26
2017-09-25T07:22:08.108Z,62.86
2017-09-25T07:24:34.312Z,62.09
2017-09-25T07:27:00.489Z,61.68
2017-09-25T07:29:26.654Z,60.38
2017-09-25T07:31:52.818Z,59.38
2017-09-25T07:34:18.992Z,58.07
2017-09-25T07:36:45.156Z,56.35
2017-09-25T07:39:11.346Z,54.89
2017-09-25T07:41:37.517Z,53.22
2017-09-25T07:44:03.687Z,51.95
2017-09-25T07:46:29.865Z,52.40
2017-09-25T07:48:56.054Z,51.56
2017-09-25T07:51:22.236Z,50.11
2017-09-25T07:53:48.417Z,48.61
2017-09-25T07:56:14.611Z,47.01
2017-09-25T07:58:40.784Z,45.96
2017-09-25T08:01:06.989Z,45.61
2017-09-25T08:03:33.190Z,44.61
2017-09-25T08:05:59.350Z,45.00
2017-09-25T08:08:25.544Z,44.54
2017-09-25T08:10:51.709Z,44.52
2017-09-25T08:13:17.878Z,44.31
2017-09-25T08:15:44.070Z,43.64
2017-09-25T08:18:10.271Z,43.84
2017-09-25T08:20:36.476Z,43.75
2017-09-25T08:23:02.651Z,43.00
2017-09-25T08:25:28.822Z,43.38
2017-09-25T08:27:55.004Z,42.25
2017-09-25T08:30:21.168Z,40.76
2017-09-25T08:32:47.332Z,41.56
2017-09-25T08:35:13.529Z,42.24
2017-09-25T08:37:39.686Z,41.76
2017-09-25T08:40:05.874Z,41.65
2017-09-25T08:42:32.041Z,42.18
2017-09-25T08:44:58.316Z,42.00
2017-09-25T08:47:24.535Z,40.22
2017-09-25T08:49:50.785Z,40.58
2017-09-25T08:52:17.023Z,40.86
2017-09-25T08:54:43.256Z,40.21
2017-09-25T08:57:09.422Z,40.43
2017-09-25T08:59:35.700Z,40.06
2017-09-25T09:02:01.880Z,38.87
2017-09-25T09:04:28.170Z,36.47
2017-09-25T09:06:54.378Z,35.95
2017-09-25T09:09:20.696Z,34.86
2017-09-25T09:11:46.963Z,35.04
2017-09-25T09:14:13.208Z,35.03
2017-09-25T09:16:39.437Z,35.55
2017-09-25T09:19:05.610Z,35.05
2017-09-25T09:21:31.893Z,34.46
2017-09-25T09:23:58.115Z,34.41
2017-09-25T09:26:24.344Z,33.72
2017-09-25T09:28:50.568Z,33.94
2017-09-25T09:31:16.903Z,34.16
2017-09-25T09:33:43.149Z,34.71
2017-09-25T09:36:09.574Z,34.67
2017-09-25T09:38:35.793Z,34.81
2017-09-25T09:41:02.035Z,34.65
2017-09-25T09:43:28.297Z,34.33
2017-09-25T09:45:54.594Z,34.73
2017-09-25T09:48:20.800Z,36.16
2017-09-25T09:50:47.046Z,36.29
2017-09-25T09:53:13.258Z,37.25
2017-09-25T09:55:39.539Z,37.73
2017-09-25T09:58:05.763Z,37.28
2017-09-25T10:00:32.110Z,37.94
2017-09-25T10:02:58.398Z,37.16
2017-09-25T10:05:24.620Z,37.88
2017-09-25T10:07:50.797Z,38.20
2017-09-25T10:10:17.083Z,37.01
2017-09-25T10:12:43.386Z,36.88
2017-09-25T10:15:09.675Z,36.37
2017-09-25T10:17:35.971Z,37.53
2017-09-25T10:20:02.255Z,37.71
2017-09-25T10:22:28.559Z,36.42
2017-09-25T10:24:54.840Z,35.31
2017-09-25T10:27:21.038Z,34.58
2017-09-25T10:29:47.230Z,35.22
2017-09-25T10:32:13.479Z,32.69
2017-09-25T10:34:39.683Z,33.04
2017-09-25T10:37:05.928Z,33.36
2017-09-25T10:39:32.221Z,33.19
2017-09-25T10:41:58.516Z,34.33
2017-09-25T10:44:24.834Z,33.87
2017-09-25T10:46:51.027Z,32.91
2017-09-25T10:49:17.272Z,32.47
2017-09-25T10:51:43.490Z,32.46
2017-09-25T10:54:09.720Z,31.69
2017-09-25T10:56:35.952Z,31.21
2017-09-25T10:59:02.173Z,31.81
2017-09-25T11:01:28.409Z,31.41
2017-09-25T11:03:54.626Z,30.66
2017-09-25T11:06:20.890Z,29.88
2017-09-25T11:08:47.105Z,31.23
2017-09-25T11:11:13.341Z,31.54
2017-09-25T11:13:39.588Z,31.31
2017-09-25T11:16:05.773Z,31.81
2017-09-25T11:18:32.011Z,32.49
2017-09-25T11:20:58.221Z,33.11
2017-09-25T11:23:24.476Z,32.74
2017-09-25T11:25:50.681Z,31.54
2017-09-25T11:28:16.931Z,31.54
2017-09-25T11:30:43.169Z,32.24
2017-09-25T11:33:09.394Z,30.44
2017-09-25T11:35:35.631Z,29.14
2017-09-25T11:38:01.850Z,29.05
2017-09-25T11:40:28.076Z,29.01
2017-09-25T11:42:54.304Z,29.34
2017-09-25T11:45:20.515Z,28.67
2017-09-25T11:47:46.786Z,28.52
2017-09-25T11:50:12.955Z,28.60
2017-09-25T11:52:39.215Z,29.72
2017-09-25T11:55:05.469Z,30.04
2017-09-25T11:57:31.688Z,29.10
2017-09-25T11:59:58.841Z,29.90
2017-09-25T12:02:25.066Z,30.85
2017-09-25T12:04:51.286Z,30.23
2017-09-25T12:07:17.533Z,30.06
2017-09-25T12:09:43.756Z,29.84
2017-09-25T12:12:09.982Z,29.68
2017-09-25T12:14:36.207Z,29.73
2017-09-25T12:17:02.448Z,30.02
2017-09-25T12:19:28.667Z,31.05
2017-09-25T12:21:54.899Z,31.52
2017-09-25T12:24:21.148Z,32.44
2017-09-25T12:26:47.371Z,33.37
2017-09-25T12:29:13.585Z,33.52
2017-09-25T12:31:39.838Z,33.55
2017-09-25T12:34:06.055Z,33.98
2017-09-25T12:36:32.235Z,33.77
2017-09-25T12:38:58.521Z,33.85
2017-09-25T12:41:24.739Z,32.80
2017-09-25T12:43:50.980Z,32.91
2017-09-25T12:46:17.208Z,32.34
2017-09-25T12:48:43.426Z,32.59
2017-09-25T12:51:09.700Z,31.73
2017-09-25T12:53:35.874Z,31.35
2017-09-25T12:56:02.106Z,31.79
2017-09-25T12:58:28.344Z,32.11
2017-09-25T13:00:54.573Z,32.21
2017-09-25T13:03:20.796Z,33.03
2017-09-25T13:05:47.036Z,33.12
2017-09-25T13:08:13.266Z,33.70
2017-09-25T13:10:39.452Z,33.62
2017-09-25T13:13:05.609Z,33.25
2017-09-25T13:15:31.759Z,31.98
2017-09-25T13:17:57.927Z,32.44
2017-09-25T13:20:24.098Z,34.55
2017-09-25T13:22:50.272Z,35.00
2017-09-25T13:25:16.450Z,34.07
2017-09-25T13:27:42.611Z,32.79
2017-09-25T13:30:08.796Z,33.42
2017-09-25T13:32:34.951Z,34.48
2017-09-25T13:35:01.110Z,34.75
2017-09-25T13:37:27.267Z,36.20
2017-09-25T13:39:53.451Z,36.41
2017-09-25T13:42:19.615Z,36.65
2017-09-25T13:44:45.814Z,36.11
2017-09-25T13:47:11.989Z,35.00
2017-09-25T13:49:38.156Z,34.63
2017-09-25T13:52:04.317Z,34.81
2017-09-25T13:54:30.536Z,34.54
2017-09-25T13:56:56.732Z,35.24
2017-09-25T14:04:25.836Z,35.71
2017-09-25T14:06:51.997Z,36.06
2017-09-25T14:09:18.158Z,35.33
2017-09-25T14:11:44.315Z,35.70
2017-09-25T14:14:10.471Z,36.68
2017-09-25T14:16:36.649Z,36.50
2017-09-25T14:19:02.829Z,36.75
2017-09-25T14:21:28.999Z,36.61
2017-09-25T14:23:55.163Z,36.58
2017-09-25T14:26:21.425Z,37.18
2017-09-25T14:28:47.655Z,37.26
2017-09-25T14:31:13.881Z,36.85
2017-09-25T14:33:40.138Z,37.43
2017-09-25T14:36:06.428Z,37.70
2017-09-25T14:38:32.709Z,38.68
2017-09-25T14:40:59.015Z,38.62
2017-09-25T14:43:25.289Z,39.62
2017-09-25T14:45:51.594Z,39.50
2017-09-25T14:48:17.798Z,39.67
2017-09-25T14:50:44.038Z,40.43
2017-09-25T14:53:10.259Z,40.73
2017-09-25T14:55:36.522Z,40.94
2017-09-25T14:58:02.740Z,41.32
2017-09-25T15:00:28.955Z,41.94
2017-09-25T15:02:55.182Z,41.79
2017-09-25T15:05:21.412Z,41.93
2017-09-25T15:07:47.666Z,42.25
2017-09-25T15:10:13.912Z,43.06
2017-09-25T15:12:40.092Z,42.41
2017-09-25T15:15:06.334Z,42.78
2017-09-25T15:17:32.562Z,42.78
2017-09-25T15:19:58.786Z,43.23
2017-09-25T15:22:25.011Z,43.68
2017-09-25T15:24:51.325Z,43.42
2017-09-25T15:27:17.561Z,44.02
2017-09-25T15:29:43.802Z,44.23
2017-09-25T15:32:10.051Z,43.83
2017-09-25T15:34:36.237Z,43.89
2017-09-25T15:37:02.543Z,44.35
2017-09-25T15:39:28.747Z,44.35
2017-09-25T15:41:55.001Z,44.55
2017-09-25T15:44:21.229Z,44.69
2017-09-25T15:46:47.440Z,45.20
2017-09-25T15:49:13.652Z,45.01
2017-09-25T15:51:39.901Z,45.25
2017-09-25T15:54:06.101Z,45.77
2017-09-25T15:56:32.398Z,45.63
2017-09-25T15:58:58.612Z,46.03
2017-09-25T16:01:24.809Z,46.40
2017-09-25T16:03:51.051Z,46.47
2017-09-25T16:06:17.257Z,46.89
2017-09-25T16:08:43.466Z,47.04
2017-09-25T16:11:09.723Z,47.34
2017-09-25T16:13:35.986Z,47.64
2017-09-25T16:16:02.183Z,47.82
2017-09-25T16:18:28.445Z,48.31
2017-09-25T16:20:54.674Z,48.62
2017-09-25T16:23:20.966Z,48.59
2017-09-25T16:25:47.302Z,48.85
2017-09-25T16:28:13.577Z,49.00
2017-09-25T16:30:39.870Z,48.90
2017-09-25T16:33:06.134Z,49.11
2017-09-25T16:35:32.350Z,49.43
2017-09-25T16:37:58.586Z,49.51
2017-09-25T16:40:24.789Z,49.71
2017-09-25T16:42:51.062Z,50.00
2017-09-25T16:45:17.273Z,50.29
2017-09-25T16:47:43.540Z,50.35
2017-09-25T16:50:09.837Z,50.20
2017-09-25T16:52:36.059Z,50.59
2017-09-25T17:01:46.145Z,51.59
2017-09-25T17:04:12.376Z,51.65
2017-09-25T17:06:38.700Z,51.90
2017-09-25T17:09:05.723Z,51.54
2017-09-25T17:11:32.026Z,51.66
2017-09-25T17:14:00.231Z,51.58
2017-09-25T17:16:26.490Z,51.57
2017-09-25T17:18:52.818Z,51.93
2017-09-25T17:21:19.034Z,51.97
2017-09-25T17:23:45.279Z,52.14
2017-09-25T17:26:11.487Z,52.10
2017-09-25T17:28:37.731Z,52.27
2017-09-25T17:31:03.957Z,52.48
2017-09-25T17:33:30.192Z,52.54
2017-09-25T17:35:56.440Z,52.47
2017-09-25T17:38:22.633Z,52.62
2017-09-25T17:40:48.873Z,52.60
2017-09-25T17:43:15.086Z,52.71
2017-09-25T17:45:41.337Z,52.82
2017-09-25T17:48:07.555Z,52.97
2017-09-25T17:50:33.787Z,53.03
2017-09-25T17:53:00.033Z,53.07
2017-09-25T17:55:26.243Z,53.73
2017-09-25T17:57:52.485Z,53.64
2017-09-25T18:00:18.691Z,53.80
2017-09-25T18:02:44.931Z,54.00
2017-09-25T18:05:11.184Z,54.50
2017-09-25T18:07:37.405Z,54.65
2017-09-25T18:10:03.632Z,54.97
2017-09-25T18:12:29.855Z,54.80
2017-09-25T18:14:56.094Z,55.08
2017-09-25T18:17:22.326Z,55.01
2017-09-25T18:19:48.564Z,55.62
2017-09-25T18:22:14.788Z,55.67
2017-09-25T18:24:40.975Z,55.63
2017-09-25T18:27:07.238Z,55.68
2017-09-25T18:29:33.482Z,56.01
2017-09-25T18:31:59.699Z,56.44
2017-09-25T18:34:25.923Z,56.23
2017-09-25T18:36:52.084Z,56.57
2017-09-25T18:39:18.285Z,56.75
2017-09-25T18:41:44.495Z,57.06
2017-09-25T18:44:10.753Z,57.49
2017-09-25T18:46:36.959Z,57.40
2017-09-25T18:49:03.122Z,57.35
2017-09-25T18:51:29.342Z,57.37
2017-09-25T18:53:55.609Z,57.70
2017-09-25T18:56:21.880Z,57.80
2017-09-25T18:58:48.028Z,57.65
2017-09-25T19:01:14.234Z,57.69
2017-09-25T19:03:40.468Z,58.02
2017-09-25T19:06:06.732Z,58.24
2017-09-25T19:08:32.949Z,58.77
2017-09-25T19:10:59.180Z,58.78
2017-09-25T19:13:25.396Z,59.06
2017-09-25T19:15:51.623Z,59.08
2017-09-25T19:18:17.898Z,59.42
2017-09-25T19:20:44.112Z,59.34
2017-09-25T19:23:10.282Z,59.92
2017-09-25T19:25:36.555Z,59.85
2017-09-25T19:28:02.784Z,59.87
2017-09-25T19:30:29.008Z,60.44
2017-09-25T19:32:55.245Z,60.39
2017-09-25T19:35:21.479Z,60.77
2017-09-25T19:37:47.697Z,60.79
2017-09-25T19:40:13.927Z,60.72
2017-09-25T19:42:40.160Z,60.54
2017-09-25T19:45:06.354Z,60.37
2017-09-25T19:47:32.634Z,60.45
2017-09-25T19:49:58.895Z,60.22
2017-09-25T19:52:25.061Z,60.37
2017-09-25T19:54:51.293Z,60.40
2017-09-25T19:57:17.543Z,60.83
2017-09-25T19:59:43.774Z,61.07
2017-09-25T20:02:09.999Z,61.07
2017-09-25T20:04:36.232Z,61.19
2017-09-25T20:07:02.472Z,61.37
2017-09-25T20:09:28.636Z,61.40
2017-09-25T20:11:54.823Z,61.46
2017-09-25T20:14:20.986Z,62.23
2017-09-25T20:16:47.171Z,61.77
2017-09-25T20:19:15.349Z,61.49
2017-09-25T20:21:41.577Z,61.35
2017-09-25T20:24:07.792Z,61.49
2017-09-25T20:26:34.443Z,62.04
2017-09-25T20:29:00.682Z,61.97
2017-09-25T20:31:26.869Z,62.48
2017-09-25T20:33:53.120Z,62.61
2017-09-25T20:36:19.323Z,63.13
2017-09-25T20:38:45.582Z,63.33
2017-09-25T20:41:11.742Z,63.14
2017-09-25T20:43:37.930Z,63.59
2017-09-25T20:46:04.166Z,63.63
2017-09-25T20:48:30.325Z,64.07
2017-09-25T20:50:56.538Z,64.54
2017-09-25T20:53:22.776Z,64.76
2017-09-25T20:55:48.992Z,64.49
2017-09-25T20:58:15.224Z,63.87
2017-09-25T21:00:41.452Z,64.39
2017-09-25T21:03:07.681Z,64.58
2017-09-25T21:05:33.902Z,64.23
2017-09-25T21:08:00.127Z,64.55
2017-09-25T21:10:26.354Z,64.89
2017-09-25T21:12:52.598Z,64.75
2017-09-25T21:15:18.836Z,64.94
2017-09-25T21:17:45.053Z,64.79
2017-09-25T21:20:11.289Z,64.66
2017-09-25T21:22:37.499Z,64.44
2017-09-25T21:25:03.731Z,64.76
2017-09-25T21:27:29.971Z,64.97
2017-09-25T21:29:56.200Z,64.91
2017-09-25T21:32:22.444Z,64.84
2017-09-25T21:34:48.655Z,65.18
2017-09-25T21:37:14.892Z,65.46
2017-09-25T21:39:41.133Z,65.60
2017-09-25T21:42:07.355Z,65.98
2017-09-25T21:44:33.581Z,66.28
2017-09-25T21:46:59.804Z,66.39
2017-09-25T21:49:26.040Z,66.57
2017-09-25T21:51:52.278Z,66.79
2017-09-25T21:54:18.514Z,67.12
2017-09-25T21:56:44.737Z,67.28
2017-09-25T21:59:10.969Z,67.13
2017-09-25T22:01:37.189Z,67.33
2017-09-25T22:04:03.421Z,66.94
2017-09-25T22:06:29.661Z,66.65
2017-09-25T22:08:55.883Z,66.94
2017-09-25T22:11:22.121Z,66.88
2017-09-25T22:13:48.348Z,66.87
2017-09-25T22:16:14.567Z,67.20
2017-09-25T22:18:40.823Z,67.07
2017-09-25T22:21:07.047Z,67.15
2017-09-25T22:23:33.242Z,67.14
2017-09-25T22:25:59.483Z,67.13
2017-09-25T22:28:25.707Z,67.16
2017-09-25T22:30:51.952Z,66.92
2017-09-25T22:33:18.176Z,67.10
2017-09-25T22:35:44.422Z,68.29
2017-09-25T22:38:10.633Z,68.29
2017-09-25T22:40:36.873Z,69.08
2017-09-25T22:43:03.100Z,68.92
2017-09-25T22:45:29.320Z,69.07
2017-09-25T22:47:55.557Z,69.53
2017-09-25T22:50:21.792Z,69.60
2017-09-25T22:52:48.024Z,69.46
2017-09-25T22:55:14.257Z,69.27
2017-09-25T22:57:40.463Z,69.22
2017-09-25T23:00:06.699Z,69.04
2017-09-25T23:02:32.923Z,68.96
2017-09-25T23:04:59.157Z,69.11
2017-09-25T23:07:25.386Z,69.03
2017-09-25T23:09:51.560Z,69.01
2017-09-25T23:12:17.774Z,69.30
2017-09-25T23:14:43.982Z,69.88
2017-09-25T23:17:10.206Z,70.21
2017-09-25T23:19:36.431Z,70.21
2017-09-25T23:22:02.667Z,70.45
2017-09-25T23:24:28.897Z,70.80
2017-09-25T23:26:55.088Z,71.18
2017-09-25T23:29:21.247Z,71.32
2017-09-25T23:31:47.498Z,71.03
2017-09-25T23:34:13.695Z,71.08
2017-09-25T23:36:39.942Z,70.57
2017-09-25T23:39:06.197Z,70.44
2017-09-25T23:41:32.380Z,70.47
2017-09-25T23:43:58.616Z,70.72
2017-09-25T23:46:24.850Z,70.98
2017-09-25T23:48:51.092Z,70.85
2017-09-25T23:51:17.321Z,71.07
2017-09-25T23:53:43.556Z,71.25
2017-09-25T23:56:09.780Z,71.34
2017-09-25T23:58:36.004Z,71.74
